createdAt,value
2022-11-24T00:01:05.801Z,99083.75
2022-11-24T00:03:34.300Z,99088.06
2022-11-24T00:06:07.984Z,99075.69
2022-11-24T00:08:35.508Z,99087.00
2022-11-24T00:11:04.923Z,99088.41
2022-11-24T00:13:34.618Z,99095.06
2022-11-24T00:16:08.140Z,99103.28
2022-11-24T00:18:35.694Z,99099.25
2022-11-24T00:21:03.258Z,99100.22
2022-11-24T00:23:32.109Z,99108.47
2022-11-24T00:26:08.953Z,99113.31
2022-11-24T00:28:37.363Z,99108.22
2022-11-24T00:31:17.323Z,99106.53
2022-11-24T00:33:45.685Z,99102.22
2022-11-24T00:36:14.184Z,99116.38
2022-11-24T00:38:43.513Z,99106.84
2022-11-24T00:41:10.875Z,99110.25
2022-11-24T00:43:38.407Z,99114.47
2022-11-24T00:46:06.926Z,99114.47
2022-11-24T00:48:34.804Z,99118.56
2022-11-24T00:51:03.619Z,99122.06
2022-11-24T00:53:31.446Z,99121.94
2022-11-24T00:56:00.312Z,99131.16
2022-11-24T00:58:28.407Z,99130.22
2022-11-24T01:01:01.647Z,99129.41
2022-11-24T01:03:29.309Z,99138.84
2022-11-24T01:05:57.248Z,99134.38
2022-11-24T01:08:24.731Z,99139.22
2022-11-24T01:10:52.226Z,99143.69
2022-11-24T01:13:21.081Z,99149.22
2022-11-24T01:15:49.053Z,99145.72
2022-11-24T01:18:17.037Z,99155.41
2022-11-24T01:20:45.245Z,99149.88
2022-11-24T01:23:12.847Z,99147.44
2022-11-24T01:25:40.263Z,99152.59
2022-11-24T01:28:07.824Z,99151.34
2022-11-24T01:30:37.166Z,99155.88
2022-11-24T01:33:05.268Z,99150.56
2022-11-24T01:35:32.768Z,99153.41
2022-11-24T01:38:00.184Z,99154.66
2022-11-24T01:40:29.301Z,99152.28
2022-11-24T01:42:57.553Z,99149.75
2022-11-24T01:45:33.975Z,99139.72
2022-11-24T01:48:06.442Z,99146.44
2022-11-24T01:50:35.905Z,99156.38
2022-11-24T01:53:05.373Z,99158.97
2022-11-24T01:55:37.055Z,99161.66
2022-11-24T01:58:07.920Z,99158.41
2022-11-24T02:00:39.522Z,99171.19
2022-11-24T02:03:11.163Z,99173.28
2022-11-24T02:05:42.353Z,99158.88
2022-11-24T02:08:16.027Z,99181.94
2022-11-24T02:10:45.710Z,99185.34
2022-11-24T02:13:15.029Z,99179.44
2022-11-24T02:15:43.252Z,99184.44
2022-11-24T02:18:12.517Z,99193.25
2022-11-24T02:20:40.141Z,99200.13
2022-11-24T02:23:15.874Z,99194.47
2022-11-24T02:25:52.206Z,99196.81
2022-11-24T02:28:23.406Z,99212.25
2022-11-24T02:30:51.370Z,99202.13
2022-11-24T02:33:21.690Z,99197.78
2022-11-24T02:35:49.248Z,99201.34
2022-11-24T02:38:17.254Z,99197.38
2022-11-24T02:40:48.211Z,99170.75
2022-11-24T02:43:20.305Z,99180.78
2022-11-24T02:45:49.406Z,99201.41
2022-11-24T02:48:17.229Z,99205.44
2022-11-24T02:50:45.148Z,99204.75
2022-11-24T02:53:12.846Z,99202.31
2022-11-24T02:55:40.366Z,99204.31
2022-11-24T02:58:08.548Z,99212.41
2022-11-24T03:00:36.340Z,99214.03
2022-11-24T03:03:05.425Z,99210.63
2022-11-24T03:05:32.878Z,99215.41
2022-11-24T03:08:00.280Z,99224.63
2022-11-24T03:10:28.688Z,99217.75
2022-11-24T03:12:56.369Z,99217.75
2022-11-24T03:15:24.399Z,99212.22
2022-11-24T03:17:54.872Z,99225.50
2022-11-24T03:20:25.710Z,99219.09
2022-11-24T03:22:53.274Z,99218.66
2022-11-24T03:25:21.379Z,99212.50
2022-11-24T03:27:48.780Z,99221.88
2022-11-24T03:30:17.279Z,99227.75
2022-11-24T03:32:45.358Z,99228.69
2022-11-24T03:35:12.748Z,99229.63
2022-11-24T03:37:44.577Z,99236.41
2022-11-24T03:40:14.685Z,99223.16
2022-11-24T03:42:44.861Z,99229.78
2022-11-24T03:45:44.157Z,99226.06
2022-11-24T03:48:07.538Z,99221.06
2022-11-24T03:50:34.934Z,99236.44
2022-11-24T03:53:03.841Z,99238.94
2022-11-24T03:55:31.407Z,99236.78
2022-11-24T03:57:59.000Z,99241.41
2022-11-24T04:00:26.561Z,99242.31
2022-11-24T04:02:54.378Z,99250.88
2022-11-24T04:05:21.892Z,99244.13
2022-11-24T04:07:49.297Z,99256.69
2022-11-24T04:10:18.741Z,99255.06
2022-11-24T04:12:46.585Z,99254.25
2022-11-24T04:15:17.174Z,99251.00
2022-11-24T04:17:46.047Z,99267.00
2022-11-24T04:20:14.134Z,99265.56
2022-11-24T04:22:42.322Z,99261.84
2022-11-24T04:25:10.879Z,99268.16
2022-11-24T04:27:39.794Z,99255.06
2022-11-24T04:30:08.448Z,99262.28
2022-11-24T04:32:35.934Z,99268.00
2022-11-24T04:35:03.378Z,99268.63
2022-11-24T04:37:31.834Z,99282.97
2022-11-24T04:39:59.455Z,99271.91
2022-11-24T04:42:27.291Z,99279.72
2022-11-24T04:44:56.065Z,99276.78
2022-11-24T04:47:25.205Z,99280.53
2022-11-24T04:49:53.378Z,99287.09
2022-11-24T04:52:22.719Z,99291.13
2022-11-24T04:54:50.525Z,99297.09
2022-11-24T04:57:20.393Z,99292.59
2022-11-24T04:59:48.738Z,99300.28
2022-11-24T05:02:17.999Z,99303.06
2022-11-24T05:04:46.317Z,99308.38
2022-11-24T05:07:18.331Z,99316.47
2022-11-24T05:10:05.136Z,99314.91
2022-11-24T05:12:32.627Z,99321.03
2022-11-24T05:15:04.210Z,99327.88
2022-11-24T05:17:36.742Z,99329.44
2022-11-24T05:20:06.622Z,99329.63
2022-11-24T05:22:34.281Z,99337.00
2022-11-24T05:25:05.172Z,99341.94
2022-11-24T05:27:34.492Z,99341.13
2022-11-24T05:30:02.337Z,99342.50
2022-11-24T05:32:31.891Z,99349.84
2022-11-24T05:35:05.673Z,99347.69
2022-11-24T05:37:34.975Z,99351.91
2022-11-24T05:40:04.132Z,99356.09
2022-11-24T05:42:46.699Z,99355.28
2022-11-24T05:45:17.058Z,99341.72
2022-11-24T05:47:44.678Z,99358.09
2022-11-24T05:50:15.803Z,99361.91
2022-11-24T05:52:43.431Z,99363.59
2022-11-24T05:55:15.805Z,99366.03
2022-11-24T05:57:45.012Z,99369.28
2022-11-24T06:00:13.399Z,99371.06
2022-11-24T06:02:41.292Z,99392.03
2022-11-24T06:05:12.389Z,99396.25
2022-11-24T06:07:43.460Z,99390.66
2022-11-24T06:10:10.914Z,99399.91
2022-11-24T06:12:39.926Z,99402.44
2022-11-24T06:15:12.317Z,99414.78
2022-11-24T06:17:41.693Z,99404.78
2022-11-24T06:20:10.523Z,99404.78
2022-11-24T06:22:38.313Z,99418.22
2022-11-24T06:25:11.167Z,99415.25
2022-11-24T06:27:42.033Z,99420.56
2022-11-24T06:30:11.962Z,99425.88
2022-11-24T06:32:41.657Z,99421.72
2022-11-24T06:35:14.976Z,99428.97
2022-11-24T06:37:45.847Z,99426.19
2022-11-24T06:40:15.013Z,99426.44
2022-11-24T06:42:43.241Z,99418.47
2022-11-24T06:45:11.587Z,99425.56
2022-11-24T06:47:38.871Z,99417.47
2022-11-24T06:50:08.403Z,99420.41
2022-11-24T06:52:35.798Z,99424.97
2022-11-24T06:55:03.329Z,99430.16
2022-11-24T06:57:32.618Z,99430.78
2022-11-24T07:00:00.153Z,99430.78
2022-11-24T07:02:27.599Z,99432.50
2022-11-24T07:04:55.508Z,99433.44
2022-11-24T07:07:22.857Z,99429.41
2022-11-24T07:09:51.636Z,99424.63
2022-11-24T07:12:19.061Z,99430.72
2022-11-24T07:14:47.806Z,99431.97
2022-11-24T07:17:15.045Z,99425.25
2022-11-24T07:19:42.249Z,99431.19
2022-11-24T07:22:09.981Z,99424.06
2022-11-24T07:24:38.096Z,99418.25
2022-11-24T07:27:08.343Z,99421.66
2022-11-24T07:29:37.528Z,99426.22
2022-11-24T07:32:06.470Z,99416.22
2022-11-24T07:34:34.124Z,99430.06
2022-11-24T07:37:02.013Z,99433.47
2022-11-24T07:39:29.252Z,99433.38
2022-11-24T07:41:57.526Z,99431.47
2022-11-24T07:44:24.775Z,99425.13
2022-11-24T07:46:53.142Z,99438.69
2022-11-24T07:49:21.864Z,99441.56
2022-11-24T07:51:49.859Z,99437.78
2022-11-24T07:54:17.909Z,99448.03
2022-11-24T07:56:47.757Z,99449.66
2022-11-24T07:59:15.620Z,99453.97
2022-11-24T08:01:42.982Z,99457.34
2022-11-24T08:04:11.280Z,99445.53
2022-11-24T08:06:44.681Z,99452.94
2022-11-24T08:09:14.473Z,99456.81
2022-11-24T08:11:41.711Z,99463.50
2022-11-24T08:14:08.968Z,99476.25
2022-11-24T08:16:36.404Z,99480.88
2022-11-24T08:19:03.689Z,99476.00
2022-11-24T08:21:31.068Z,99482.50
2022-11-24T08:23:59.646Z,99476.53
2022-11-24T08:26:27.269Z,99485.31
2022-11-24T08:28:56.604Z,99491.53
2022-11-24T08:31:26.218Z,99496.25
2022-11-24T08:33:55.968Z,99492.88
2022-11-24T08:36:23.209Z,99501.72
2022-11-24T08:38:55.095Z,99487.25
2022-11-24T08:41:25.363Z,99514.38
2022-11-24T08:43:53.135Z,99507.69
2022-11-24T08:46:21.313Z,99514.38
2022-11-24T08:48:50.232Z,99517.03
2022-11-24T08:51:20.839Z,99516.41
2022-11-24T08:53:48.366Z,99517.34
2022-11-24T08:56:15.645Z,99509.72
2022-11-24T08:58:44.347Z,99523.72
2022-11-24T09:01:13.416Z,99525.16
2022-11-24T09:03:46.546Z,99525.88
2022-11-24T09:06:18.361Z,99533.47
2022-11-24T09:08:45.818Z,99529.16
2022-11-24T09:11:15.264Z,99528.78
2022-11-24T09:13:44.440Z,99531.03
2022-11-24T09:16:13.873Z,99532.47
2022-11-24T09:18:41.974Z,99528.25
2022-11-24T09:21:10.671Z,99522.50
2022-11-24T09:23:38.454Z,99530.72
2022-11-24T09:26:07.233Z,99525.09
2022-11-24T09:28:34.742Z,99532.31
2022-11-24T09:31:04.481Z,99538.25
2022-11-24T09:33:32.698Z,99526.06
2022-11-24T09:36:01.405Z,99532.56
2022-11-24T09:38:29.143Z,99534.19
2022-11-24T09:41:05.951Z,99534.50
2022-11-24T09:43:41.336Z,99539.00
2022-11-24T09:46:18.465Z,99506.88
2022-11-24T09:48:49.633Z,99535.97
2022-11-24T09:51:19.575Z,99541.09
2022-11-24T09:53:56.758Z,99526.91
2022-11-24T09:56:28.956Z,99539.16
2022-11-24T09:59:00.602Z,99540.59
2022-11-24T10:01:31.829Z,99546.94
2022-11-24T10:04:05.630Z,99544.22
2022-11-24T10:06:40.303Z,99528.72
2022-11-24T10:09:19.813Z,99548.91
2022-11-24T10:11:58.625Z,99545.59
2022-11-24T10:15:01.941Z,99541.00
2022-11-24T10:17:49.886Z,99550.19
2022-11-24T10:20:27.295Z,99551.88
2022-11-24T10:23:08.646Z,99551.81
2022-11-24T10:25:44.359Z,99555.50
2022-11-24T10:28:15.409Z,99546.31
2022-11-24T10:30:43.260Z,99553.00
2022-11-24T10:33:18.773Z,99559.97
2022-11-24T10:35:51.007Z,99565.59
2022-11-24T10:38:33.894Z,99526.13
2022-11-24T10:41:08.083Z,99570.06
2022-11-24T10:43:35.293Z,99557.91
2022-11-24T10:46:11.814Z,99552.22
2022-11-24T10:48:46.522Z,99539.22
2022-11-24T10:51:35.619Z,99561.41
2022-11-24T10:54:11.539Z,99553.41
2022-11-24T10:56:40.299Z,99555.03
2022-11-24T10:59:31.100Z,99561.88
2022-11-24T11:01:59.003Z,99565.75
2022-11-24T11:04:30.170Z,99567.84
2022-11-24T11:07:17.825Z,99579.75
2022-11-24T11:09:47.489Z,99559.78
2022-11-24T11:12:42.799Z,99578.88
2022-11-24T11:15:28.516Z,99578.19
2022-11-24T11:18:00.202Z,99569.53
2022-11-24T11:20:32.075Z,99571.38
2022-11-24T11:23:15.235Z,99579.00
2022-11-24T11:25:46.498Z,99576.03
2022-11-24T11:28:30.339Z,99581.44
2022-11-24T11:34:06.133Z,99568.69
2022-11-24T11:36:42.770Z,99549.22
2022-11-24T11:39:23.162Z,99573.19
2022-11-24T11:41:54.703Z,99564.75
2022-11-24T11:44:32.795Z,99580.28
2022-11-24T11:47:09.374Z,99578.03
2022-11-24T11:49:39.444Z,99586.31
2022-11-24T11:55:31.868Z,99569.13
2022-11-24T11:58:13.673Z,99584.69
2022-11-24T12:00:48.653Z,99588.34
2022-11-24T12:03:41.315Z,99599.44
2022-11-24T12:06:22.968Z,99599.25
2022-11-24T12:09:19.781Z,99610.69
2022-11-24T12:12:02.039Z,99604.19
2022-11-24T12:14:39.641Z,99596.19
2022-11-24T12:17:17.494Z,99567.19
2022-11-24T12:20:03.865Z,99591.22
2022-11-24T12:22:40.912Z,99575.63
2022-11-24T12:25:23.415Z,99587.22
2022-11-24T12:28:03.979Z,99606.56
2022-11-24T12:30:40.693Z,99614.53
2022-11-24T12:33:19.560Z,99604.94
2022-11-24T12:35:52.314Z,99608.47
2022-11-24T12:38:31.752Z,99606.72
2022-11-24T12:41:40.581Z,99604.06
2022-11-24T12:44:11.944Z,99613.06
2022-11-24T12:46:49.922Z,99618.16
2022-11-24T12:49:28.650Z,99618.84
2022-11-24T12:52:02.504Z,99619.97
2022-11-24T12:54:36.920Z,99613.66
2022-11-24T12:57:12.672Z,99633.91
2022-11-24T12:59:48.700Z,99630.53
2022-11-24T13:02:25.110Z,99639.44
2022-11-24T13:05:00.110Z,99629.47
2022-11-24T13:07:40.156Z,99632.22
2022-11-24T13:10:55.854Z,99640.78
2022-11-24T13:13:23.510Z,99650.66
2022-11-24T13:19:09.225Z,99650.59
2022-11-24T13:22:01.611Z,99644.22
2022-11-24T13:24:35.275Z,99659.69
2022-11-24T13:27:28.257Z,99660.22
2022-11-24T13:29:57.935Z,99670.69
2022-11-24T13:32:47.815Z,99666.72
2022-11-24T13:35:16.547Z,99669.50
2022-11-24T13:37:51.660Z,99670.31
2022-11-24T13:40:54.178Z,99669.19
2022-11-24T13:43:33.284Z,99674.72
2022-11-24T13:46:04.293Z,99679.56
2022-11-24T13:49:00.346Z,99674.69
2022-11-24T13:51:29.693Z,99678.66
2022-11-24T13:54:00.109Z,99684.47
2022-11-24T13:56:31.173Z,99692.41
2022-11-24T13:59:15.810Z,99695.19
2022-11-24T14:01:46.942Z,99691.78
2022-11-24T14:04:35.280Z,99691.06
2022-11-24T14:07:09.460Z,99704.97
2022-11-24T14:09:43.697Z,99700.09
2022-11-24T14:12:15.589Z,99705.72
2022-11-24T14:14:44.572Z,99715.41
2022-11-24T14:17:19.626Z,99723.56
2022-11-24T14:19:48.522Z,99702.47
2022-11-24T14:22:18.986Z,99716.84
2022-11-24T14:24:52.628Z,99713.66
2022-11-24T14:27:26.599Z,99712.88
2022-11-24T14:29:56.332Z,99722.03
2022-11-24T14:32:25.140Z,99719.38
2022-11-24T14:34:54.161Z,99731.72
2022-11-24T14:37:22.240Z,99730.56
2022-11-24T14:39:50.214Z,99725.25
2022-11-24T14:42:20.259Z,99741.28
2022-11-24T14:44:52.869Z,99725.59
2022-11-24T14:47:31.297Z,99727.38
2022-11-24T14:50:09.850Z,99733.13
2022-11-24T14:52:46.020Z,99738.84
2022-11-24T14:55:26.157Z,99726.72
2022-11-24T14:57:53.684Z,99739.56
2022-11-24T15:00:28.567Z,99730.34
2022-11-24T15:03:16.556Z,99736.25
2022-11-24T15:05:54.608Z,99733.91
2022-11-24T15:08:24.459Z,99711.03
2022-11-24T15:11:02.242Z,99738.44
2022-11-24T15:13:38.929Z,99740.03
2022-11-24T15:16:16.181Z,99757.41
2022-11-24T15:18:47.391Z,99752.53
2022-11-24T15:21:19.306Z,99766.41
2022-11-24T15:24:05.155Z,99763.66
2022-11-24T15:26:38.263Z,99760.56
2022-11-24T15:29:09.565Z,99765.16
2022-11-24T15:31:37.477Z,99761.00
2022-11-24T15:34:06.269Z,99758.94
2022-11-24T15:36:34.319Z,99762.28
2022-11-24T15:39:02.053Z,99744.47
2022-11-24T15:41:31.113Z,99748.28
2022-11-24T15:43:59.536Z,99760.25
2022-11-24T15:46:27.938Z,99763.69
2022-11-24T15:48:55.536Z,99758.78
2022-11-24T15:51:26.231Z,99769.34
2022-11-24T15:54:00.250Z,99765.84
2022-11-24T15:56:32.222Z,99772.66
2022-11-24T15:58:59.856Z,99770.66
2022-11-24T16:01:31.216Z,99772.81
2022-11-24T16:04:01.154Z,99777.19
2022-11-24T16:06:31.046Z,99792.34
2022-11-24T16:09:01.519Z,99791.75
2022-11-24T16:11:34.953Z,99792.50
2022-11-24T16:14:04.418Z,99785.03
2022-11-24T16:16:31.935Z,99784.13
2022-11-24T16:18:59.930Z,99791.66
2022-11-24T16:21:27.302Z,99788.50
2022-11-24T16:23:56.292Z,99789.50
2022-11-24T16:26:23.607Z,99787.94
2022-11-24T16:28:50.887Z,99792.06
2022-11-24T16:31:20.423Z,99791.84
2022-11-24T16:33:49.363Z,99795.91
2022-11-24T16:36:18.080Z,99796.56
2022-11-24T16:38:49.325Z,99794.81
2022-11-24T16:41:21.795Z,99794.81
2022-11-24T16:43:49.051Z,99811.72
2022-11-24T16:46:18.788Z,99806.81
2022-11-24T16:48:46.211Z,99816.81
2022-11-24T16:51:14.447Z,99810.59
2022-11-24T16:53:43.143Z,99810.53
2022-11-24T16:56:15.937Z,99815.19
2022-11-24T16:58:46.575Z,99819.06
2022-11-24T17:01:14.443Z,99823.25
2022-11-24T17:03:42.146Z,99819.97
2022-11-24T17:06:11.518Z,99815.91
2022-11-24T17:08:41.546Z,99816.81
2022-11-24T17:11:10.408Z,99824.25
2022-11-24T17:13:39.061Z,99827.41
2022-11-24T17:16:10.014Z,99833.03
2022-11-24T17:18:39.012Z,99822.53
2022-11-24T17:21:13.019Z,99818.56
2022-11-24T17:23:40.798Z,99812.09
2022-11-24T17:26:11.644Z,99818.56
2022-11-24T17:28:39.327Z,99820.97
2022-11-24T17:31:08.625Z,99819.28
2022-11-24T17:33:39.001Z,99826.03
2022-11-24T17:36:08.769Z,99827.09
2022-11-24T17:38:38.530Z,99818.94
2022-11-24T17:41:06.059Z,99822.28
2022-11-24T17:43:33.555Z,99821.59
2022-11-24T17:46:05.412Z,99825.00
2022-11-24T17:48:36.714Z,99840.22
2022-11-24T17:51:05.774Z,99847.22
2022-11-24T17:53:33.042Z,99849.41
2022-11-24T17:56:01.030Z,99847.13
2022-11-24T17:58:28.322Z,99844.22
2022-11-24T18:00:56.322Z,99855.31
2022-11-24T18:03:31.777Z,99845.50
2022-11-24T18:06:05.419Z,99847.38
2022-11-24T18:08:33.223Z,99845.28
2022-11-24T18:11:04.676Z,99856.28
2022-11-24T18:13:55.310Z,99856.22
2022-11-24T18:16:20.429Z,99859.25
2022-11-24T18:19:07.430Z,99854.25
2022-11-24T18:21:37.761Z,99862.41
2022-11-24T18:24:10.444Z,99857.47
2022-11-24T18:26:41.916Z,99859.03
2022-11-24T18:29:09.441Z,99869.22
2022-11-24T18:31:37.448Z,99860.13
2022-11-24T18:34:06.041Z,99863.34
2022-11-24T18:36:35.477Z,99860.81
2022-11-24T18:39:07.621Z,99861.53
2022-11-24T18:41:36.098Z,99869.84
2022-11-24T18:44:08.051Z,99861.91
2022-11-24T18:46:35.811Z,99872.03
2022-11-24T18:49:03.707Z,99869.56
2022-11-24T18:51:30.989Z,99866.94
2022-11-24T18:53:58.341Z,99865.31
2022-11-24T18:56:27.465Z,99867.75
2022-11-24T18:58:56.513Z,99870.34
2022-11-24T19:01:25.373Z,99875.09
2022-11-24T19:03:54.055Z,99877.63
2022-11-24T19:06:24.035Z,99880.56
2022-11-24T19:08:53.755Z,99887.84
2022-11-24T19:11:23.536Z,99890.25
2022-11-24T19:13:52.723Z,99890.19
2022-11-24T19:16:20.784Z,99888.88
2022-11-24T19:18:54.060Z,99869.34
2022-11-24T19:21:22.769Z,99884.34
2022-11-24T19:23:50.253Z,99885.47
2022-11-24T19:26:19.620Z,99883.13
2022-11-24T19:28:48.036Z,99883.22
2022-11-24T19:31:19.417Z,99885.69
2022-11-24T19:33:50.741Z,99889.81
2022-11-24T19:36:21.351Z,99881.38
2022-11-24T19:38:50.584Z,99883.53
2022-11-24T19:41:22.145Z,99873.59
2022-11-24T19:43:55.002Z,99887.38
2022-11-24T19:46:27.590Z,99883.81
2022-11-24T19:48:57.305Z,99869.75
2022-11-24T19:51:26.618Z,99864.03
2022-11-24T19:53:56.966Z,99885.63
2022-11-24T19:56:30.820Z,99888.97
2022-11-24T19:59:00.011Z,99871.84
2022-11-24T20:01:36.814Z,99886.63
2022-11-24T20:04:08.505Z,99891.53
2022-11-24T20:06:40.997Z,99894.47
2022-11-24T20:09:18.815Z,99896.78
2022-11-24T20:11:51.144Z,99896.91
2022-11-24T20:14:23.455Z,99890.44
2022-11-24T20:16:57.822Z,99893.78
2022-11-24T20:19:30.244Z,99892.69
2022-11-24T20:21:58.898Z,99896.78
2022-11-24T20:24:30.018Z,99900.06
2022-11-24T20:27:02.385Z,99899.41
2022-11-24T20:29:35.015Z,99897.09
2022-11-24T20:32:05.724Z,99893.84
2022-11-24T20:34:33.668Z,99896.38
2022-11-24T20:37:01.026Z,99895.66
2022-11-24T20:39:28.434Z,99892.53
2022-11-24T20:41:56.686Z,99904.31
2022-11-24T20:44:26.703Z,99894.63
2022-11-24T20:46:55.939Z,99898.78
2022-11-24T20:49:25.202Z,99916.94
2022-11-24T20:51:54.537Z,99914.66
2022-11-24T20:54:22.396Z,99915.53
2022-11-24T20:56:49.848Z,99902.97
2022-11-24T20:59:19.717Z,99923.00
2022-11-24T21:01:48.919Z,99916.59
2022-11-24T21:04:18.043Z,99937.16
2022-11-24T21:06:47.576Z,99934.69
2022-11-24T21:09:15.500Z,99936.25
2022-11-24T21:11:43.126Z,99924.56
2022-11-24T21:14:10.857Z,99936.16
2022-11-24T21:16:40.109Z,99927.38
2022-11-24T21:19:10.084Z,99942.97
2022-11-24T21:21:37.993Z,99938.69
2022-11-24T21:24:11.227Z,99943.66
2022-11-24T21:26:40.090Z,99938.66
2022-11-24T21:29:08.424Z,99955.84
2022-11-24T21:31:37.082Z,99954.25
2022-11-24T21:34:07.447Z,99962.66
2022-11-24T21:36:38.264Z,99961.00
2022-11-24T21:39:12.755Z,99956.19
2022-11-24T21:41:42.500Z,99958.81
2022-11-24T21:44:11.582Z,99962.22
2022-11-24T21:46:44.146Z,99962.91
2022-11-24T21:49:16.984Z,99962.25
2022-11-24T21:51:45.299Z,99968.31
2022-11-24T21:54:15.064Z,99969.09
2022-11-24T21:56:43.375Z,99964.88
2022-11-24T21:59:10.655Z,99959.97
2022-11-24T22:01:38.104Z,99966.44
2022-11-24T22:04:05.994Z,99955.34
2022-11-24T22:06:33.431Z,99957.69
2022-11-24T22:09:01.408Z,99952.16
2022-11-24T22:11:30.343Z,99962.44
2022-11-24T22:13:57.825Z,99965.03
2022-11-24T22:16:25.950Z,99969.03
2022-11-24T22:18:53.218Z,99960.88
2022-11-24T22:21:30.729Z,99952.94
2022-11-24T22:23:58.379Z,99975.94
2022-11-24T22:26:26.661Z,99971.84
2022-11-24T22:28:56.561Z,99970.13
2022-11-24T22:31:25.444Z,99972.34
2022-11-24T22:33:54.426Z,99966.81
2022-11-24T22:36:25.218Z,99948.50
2022-11-24T22:38:54.455Z,99967.22
2022-11-24T22:41:22.145Z,99972.13
2022-11-24T22:43:49.793Z,99971.50
2022-11-24T22:46:19.942Z,99978.34
2022-11-24T22:48:48.482Z,99975.97
2022-11-24T22:51:17.979Z,99977.69
2022-11-24T22:53:47.884Z,99982.09
2022-11-24T22:56:16.642Z,99975.56
2022-11-24T22:58:44.151Z,99973.06
2022-11-24T23:01:14.831Z,99988.78
2022-11-24T23:03:45.444Z,99995.50
2022-11-24T23:06:15.387Z,99984.53
2022-11-24T23:08:44.125Z,99986.22
2022-11-24T23:11:14.424Z,99982.22
2022-11-24T23:13:42.190Z,99993.72
2022-11-24T23:16:11.953Z,99986.59
2022-11-24T23:18:39.536Z,99998.88
2022-11-24T23:21:11.733Z,99988.19
2022-11-24T23:23:40.175Z,99996.59
2022-11-24T23:26:11.756Z,99995.66
2022-11-24T23:28:40.759Z,99990.53
2022-11-24T23:31:09.995Z,99991.63
2022-11-24T23:33:38.297Z,99994.13
2022-11-24T23:36:10.397Z,100006.66
2022-11-24T23:38:41.121Z,100003.41
2022-11-24T23:41:10.965Z,99999.22
2022-11-24T23:43:40.893Z,100004.16
2022-11-24T23:46:10.423Z,99969.06
2022-11-24T23:48:38.653Z,100005.09
2022-11-24T23:51:10.898Z,100009.25
2022-11-24T23:53:38.876Z,100017.50
2022-11-24T23:56:07.384Z,100009.31
2022-11-24T23:58:34.924Z,100016.88
